sensor_id;sensor_type;location;lat;lon;timestamp;temperature;humidity
7384;DHT22;3733;47.994;8.820;2022-12-08T00:01:37;0.90;99.90
7384;DHT22;3733;47.994;8.820;2022-12-08T00:04:04;0.90;99.90
7384;DHT22;3733;47.994;8.820;2022-12-08T00:06:37;0.90;99.90
7384;DHT22;3733;47.994;8.820;2022-12-08T00:12:00;0.90;99.90
7384;DHT22;3733;47.994;8.820;2022-12-08T00:14:29;0.90;99.90
7384;DHT22;3733;47.994;8.820;2022-12-08T00:16:56;0.80;99.90
7384;DHT22;3733;47.994;8.820;2022-12-08T00:19:22;0.80;99.90
7384;DHT22;3733;47.994;8.820;2022-12-08T00:21:49;0.80;99.90
7384;DHT22;3733;47.994;8.820;2022-12-08T00:24:14;0.80;99.90
7384;DHT22;3733;47.994;8.820;2022-12-08T00:26:40;0.80;99.90
7384;DHT22;3733;47.994;8.820;2022-12-08T00:29:06;0.80;99.90
7384;DHT22;3733;47.994;8.820;2022-12-08T00:31:31;0.80;99.90
7384;DHT22;3733;47.994;8.820;2022-12-08T00:33:57;0.90;99.90
7384;DHT22;3733;47.994;8.820;2022-12-08T00:36:23;0.80;99.90
7384;DHT22;3733;47.994;8.820;2022-12-08T00:38:49;0.80;99.90
7384;DHT22;3733;47.994;8.820;2022-12-08T00:41:17;0.80;99.90
7384;DHT22;3733;47.994;8.820;2022-12-08T00:43:43;0.80;99.90
7384;DHT22;3733;47.994;8.820;2022-12-08T00:46:09;0.80;99.90
7384;DHT22;3733;47.994;8.820;2022-12-08T00:48:36;0.80;99.90
7384;DHT22;3733;47.994;8.820;2022-12-08T00:51:02;0.70;99.90
7384;DHT22;3733;47.994;8.820;2022-12-08T00:53:28;0.70;99.90
7384;DHT22;3733;47.994;8.820;2022-12-08T00:55:54;0.70;99.90
7384;DHT22;3733;47.994;8.820;2022-12-08T00:58:20;0.70;99.90
7384;DHT22;3733;47.994;8.820;2022-12-08T01:00:45;0.70;99.90
7384;DHT22;3733;47.994;8.820;2022-12-08T01:03:11;0.70;99.90
7384;DHT22;3733;47.994;8.820;2022-12-08T01:05:38;0.70;99.90
7384;DHT22;3733;47.994;8.820;2022-12-08T01:08:07;0.70;99.90
7384;DHT22;3733;47.994;8.820;2022-12-08T01:10:37;0.70;99.90
7384;DHT22;3733;47.994;8.820;2022-12-08T01:13:04;0.70;99.90
7384;DHT22;3733;47.994;8.820;2022-12-08T01:15:30;0.70;99.90
7384;DHT22;3733;47.994;8.820;2022-12-08T01:17:55;0.60;99.90
7384;DHT22;3733;47.994;8.820;2022-12-08T01:20:21;0.60;99.90
7384;DHT22;3733;47.994;8.820;2022-12-08T01:22:46;0.60;99.90
7384;DHT22;3733;47.994;8.820;2022-12-08T01:25:12;0.60;99.90
7384;DHT22;3733;47.994;8.820;2022-12-08T01:27:38;0.60;99.90
7384;DHT22;3733;47.994;8.820;2022-12-08T01:30:04;0.50;99.90
7384;DHT22;3733;47.994;8.820;2022-12-08T01:32:30;0.50;99.90
7384;DHT22;3733;47.994;8.820;2022-12-08T01:34:55;0.50;99.90
7384;DHT22;3733;47.994;8.820;2022-12-08T01:37:21;0.40;99.90
7384;DHT22;3733;47.994;8.820;2022-12-08T01:39:47;0.40;99.90
7384;DHT22;3733;47.994;8.820;2022-12-08T01:42:19;0.40;99.90
7384;DHT22;3733;47.994;8.820;2022-12-08T01:44:53;0.40;99.90
7384;DHT22;3733;47.994;8.820;2022-12-08T01:47:20;0.30;99.90
7384;DHT22;3733;47.994;8.820;2022-12-08T01:49:47;0.30;99.90
7384;DHT22;3733;47.994;8.820;2022-12-08T01:52:31;0.30;99.90
7384;DHT22;3733;47.994;8.820;2022-12-08T01:55:37;0.30;99.90
7384;DHT22;3733;47.994;8.820;2022-12-08T01:58:14;0.30;99.90
7384;DHT22;3733;47.994;8.820;2022-12-08T02:00:41;0.30;99.90
7384;DHT22;3733;47.994;8.820;2022-12-08T02:03:12;0.30;99.90
7384;DHT22;3733;47.994;8.820;2022-12-08T02:05:40;0.20;99.90
7384;DHT22;3733;47.994;8.820;2022-12-08T02:08:09;0.20;99.90
7384;DHT22;3733;47.994;8.820;2022-12-08T02:10:37;0.20;99.90
7384;DHT22;3733;47.994;8.820;2022-12-08T02:13:06;0.20;99.90
7384;DHT22;3733;47.994;8.820;2022-12-08T02:15:44;0.20;99.90
7384;DHT22;3733;47.994;8.820;2022-12-08T02:21:13;0.10;99.90
7384;DHT22;3733;47.994;8.820;2022-12-08T02:26:58;0.10;99.90
7384;DHT22;3733;47.994;8.820;2022-12-08T02:40:35;0.20;99.90
7384;DHT22;3733;47.994;8.820;2022-12-08T02:43:13;0.20;99.90
7384;DHT22;3733;47.994;8.820;2022-12-08T02:45:49;0.20;99.90
7384;DHT22;3733;47.994;8.820;2022-12-08T02:48:16;0.20;99.90
7384;DHT22;3733;47.994;8.820;2022-12-08T02:50:42;0.20;99.90
7384;DHT22;3733;47.994;8.820;2022-12-08T02:53:08;0.20;99.90
7384;DHT22;3733;47.994;8.820;2022-12-08T03:03:58;0.10;99.90
7384;DHT22;3733;47.994;8.820;2022-12-08T03:09:08;0.00;99.90
7384;DHT22;3733;47.994;8.820;2022-12-08T03:11:46;0.00;99.90
7384;DHT22;3733;47.994;8.820;2022-12-08T03:14:15;-0.10;99.90
7384;DHT22;3733;47.994;8.820;2022-12-08T03:16:45;-0.10;99.90
7384;DHT22;3733;47.994;8.820;2022-12-08T03:19:17;-0.10;99.90
7384;DHT22;3733;47.994;8.820;2022-12-08T03:21:49;-0.10;99.90
7384;DHT22;3733;47.994;8.820;2022-12-08T03:24:16;-0.10;99.90
7384;DHT22;3733;47.994;8.820;2022-12-08T03:26:50;-0.10;99.90
7384;DHT22;3733;47.994;8.820;2022-12-08T03:29:17;-0.10;99.90
7384;DHT22;3733;47.994;8.820;2022-12-08T03:31:49;-0.20;99.90
7384;DHT22;3733;47.994;8.820;2022-12-08T03:34:17;-0.20;99.90
7384;DHT22;3733;47.994;8.820;2022-12-08T03:36:44;-0.10;99.90
7384;DHT22;3733;47.994;8.820;2022-12-08T03:39:09;-0.20;99.90
7384;DHT22;3733;47.994;8.820;2022-12-08T03:41:35;-0.20;99.90
7384;DHT22;3733;47.994;8.820;2022-12-08T03:44:01;-0.20;99.90
7384;DHT22;3733;47.994;8.820;2022-12-08T03:46:28;-0.20;99.90
7384;DHT22;3733;47.994;8.820;2022-12-08T03:48:55;-0.20;99.90
7384;DHT22;3733;47.994;8.820;2022-12-08T03:51:21;-0.20;99.90
7384;DHT22;3733;47.994;8.820;2022-12-08T03:53:47;-0.20;99.90
7384;DHT22;3733;47.994;8.820;2022-12-08T03:56:32;-0.30;99.90
7384;DHT22;3733;47.994;8.820;2022-12-08T03:58:58;-0.30;99.90
7384;DHT22;3733;47.994;8.820;2022-12-08T04:01:24;-0.20;99.90
7384;DHT22;3733;47.994;8.820;2022-12-08T04:03:51;-0.20;99.90
7384;DHT22;3733;47.994;8.820;2022-12-08T04:06:17;-0.20;99.90
7384;DHT22;3733;47.994;8.820;2022-12-08T04:08:43;-0.20;99.90
7384;DHT22;3733;47.994;8.820;2022-12-08T04:11:09;-0.20;99.90
7384;DHT22;3733;47.994;8.820;2022-12-08T04:13:37;-0.10;99.90
7384;DHT22;3733;47.994;8.820;2022-12-08T04:16:03;-0.10;99.90
7384;DHT22;3733;47.994;8.820;2022-12-08T04:18:30;-0.10;99.90
7384;DHT22;3733;47.994;8.820;2022-12-08T04:20:55;-0.10;99.90
7384;DHT22;3733;47.994;8.820;2022-12-08T04:23:21;-0.10;99.90
7384;DHT22;3733;47.994;8.820;2022-12-08T04:25:47;-0.10;99.90
7384;DHT22;3733;47.994;8.820;2022-12-08T04:28:12;-0.10;99.90
7384;DHT22;3733;47.994;8.820;2022-12-08T04:30:38;-0.10;99.90
7384;DHT22;3733;47.994;8.820;2022-12-08T04:33:04;-0.10;99.90
7384;DHT22;3733;47.994;8.820;2022-12-08T04:35:30;-0.10;99.90
7384;DHT22;3733;47.994;8.820;2022-12-08T04:37:56;-0.10;99.90
7384;DHT22;3733;47.994;8.820;2022-12-08T04:40:21;-0.10;99.90
7384;DHT22;3733;47.994;8.820;2022-12-08T04:42:47;-0.10;99.90
7384;DHT22;3733;47.994;8.820;2022-12-08T04:45:13;-0.10;99.90
7384;DHT22;3733;47.994;8.820;2022-12-08T04:47:39;-0.10;99.90
7384;DHT22;3733;47.994;8.820;2022-12-08T04:50:06;-0.10;99.90
7384;DHT22;3733;47.994;8.820;2022-12-08T04:52:31;-0.10;99.90
7384;DHT22;3733;47.994;8.820;2022-12-08T04:54:57;-0.10;99.90
7384;DHT22;3733;47.994;8.820;2022-12-08T04:57:23;-0.10;99.90
7384;DHT22;3733;47.994;8.820;2022-12-08T04:59:48;-0.10;99.90
7384;DHT22;3733;47.994;8.820;2022-12-08T05:02:14;-0.10;99.90
7384;DHT22;3733;47.994;8.820;2022-12-08T05:04:40;-0.10;99.90
7384;DHT22;3733;47.994;8.820;2022-12-08T05:07:05;-0.10;99.90
7384;DHT22;3733;47.994;8.820;2022-12-08T05:09:31;0.00;99.90
7384;DHT22;3733;47.994;8.820;2022-12-08T05:11:57;0.00;99.90
7384;DHT22;3733;47.994;8.820;2022-12-08T05:14:22;0.00;99.90
7384;DHT22;3733;47.994;8.820;2022-12-08T05:16:48;0.00;99.90
7384;DHT22;3733;47.994;8.820;2022-12-08T05:19:14;0.00;99.90
7384;DHT22;3733;47.994;8.820;2022-12-08T05:21:41;0.00;99.90
7384;DHT22;3733;47.994;8.820;2022-12-08T05:24:07;0.00;99.90
7384;DHT22;3733;47.994;8.820;2022-12-08T05:26:33;-0.10;99.90
7384;DHT22;3733;47.994;8.820;2022-12-08T05:28:59;-0.10;99.90
7384;DHT22;3733;47.994;8.820;2022-12-08T05:31:24;-0.10;99.90
7384;DHT22;3733;47.994;8.820;2022-12-08T05:33:51;-0.20;99.90
7384;DHT22;3733;47.994;8.820;2022-12-08T05:36:17;-0.10;99.90
7384;DHT22;3733;47.994;8.820;2022-12-08T05:38:44;-0.20;99.90
7384;DHT22;3733;47.994;8.820;2022-12-08T05:41:14;-0.20;99.90
7384;DHT22;3733;47.994;8.820;2022-12-08T05:43:40;-0.30;99.90
7384;DHT22;3733;47.994;8.820;2022-12-08T05:46:07;-0.30;99.90
7384;DHT22;3733;47.994;8.820;2022-12-08T05:48:33;-0.40;99.90
7384;DHT22;3733;47.994;8.820;2022-12-08T05:50:59;-0.40;99.90
7384;DHT22;3733;47.994;8.820;2022-12-08T05:53:26;-0.50;99.90
7384;DHT22;3733;47.994;8.820;2022-12-08T05:55:52;-0.50;99.90
7384;DHT22;3733;47.994;8.820;2022-12-08T05:58:19;-0.50;99.90
7384;DHT22;3733;47.994;8.820;2022-12-08T06:00:46;-0.60;99.90
7384;DHT22;3733;47.994;8.820;2022-12-08T06:03:14;-0.60;99.90
7384;DHT22;3733;47.994;8.820;2022-12-08T06:05:41;-0.70;99.90
7384;DHT22;3733;47.994;8.820;2022-12-08T06:08:07;-0.70;99.90
7384;DHT22;3733;47.994;8.820;2022-12-08T06:10:33;-0.80;99.90
7384;DHT22;3733;47.994;8.820;2022-12-08T06:12:59;-0.80;99.90
7384;DHT22;3733;47.994;8.820;2022-12-08T06:15:25;-0.80;99.90
7384;DHT22;3733;47.994;8.820;2022-12-08T06:17:50;-0.90;99.90
7384;DHT22;3733;47.994;8.820;2022-12-08T06:20:16;-0.90;99.90
7384;DHT22;3733;47.994;8.820;2022-12-08T06:22:42;-0.90;99.90
7384;DHT22;3733;47.994;8.820;2022-12-08T06:25:08;-1.00;99.90
7384;DHT22;3733;47.994;8.820;2022-12-08T06:27:34;-1.00;99.90
7384;DHT22;3733;47.994;8.820;2022-12-08T06:29:59;-1.00;99.90
7384;DHT22;3733;47.994;8.820;2022-12-08T06:32:25;-1.00;99.90
7384;DHT22;3733;47.994;8.820;2022-12-08T06:34:51;-1.00;99.90
7384;DHT22;3733;47.994;8.820;2022-12-08T06:37:17;-1.00;99.90
7384;DHT22;3733;47.994;8.820;2022-12-08T06:39:43;-1.00;99.90
7384;DHT22;3733;47.994;8.820;2022-12-08T06:42:08;-1.00;99.90
7384;DHT22;3733;47.994;8.820;2022-12-08T06:44:52;-1.10;99.90
7384;DHT22;3733;47.994;8.820;2022-12-08T06:47:20;-1.10;99.90
7384;DHT22;3733;47.994;8.820;2022-12-08T06:49:46;-1.10;99.90
7384;DHT22;3733;47.994;8.820;2022-12-08T06:52:11;-1.10;99.90
7384;DHT22;3733;47.994;8.820;2022-12-08T06:54:37;-1.20;99.90
7384;DHT22;3733;47.994;8.820;2022-12-08T06:57:02;-1.20;99.90
7384;DHT22;3733;47.994;8.820;2022-12-08T06:59:29;-1.20;99.90
7384;DHT22;3733;47.994;8.820;2022-12-08T07:01:54;-1.30;99.90
7384;DHT22;3733;47.994;8.820;2022-12-08T07:04:20;-1.30;99.90
7384;DHT22;3733;47.994;8.820;2022-12-08T07:06:46;-1.30;99.90
7384;DHT22;3733;47.994;8.820;2022-12-08T07:09:11;-1.30;99.90
7384;DHT22;3733;47.994;8.820;2022-12-08T07:11:37;-1.30;99.90
7384;DHT22;3733;47.994;8.820;2022-12-08T07:14:03;-1.40;99.90
7384;DHT22;3733;47.994;8.820;2022-12-08T07:16:29;-1.40;99.90
7384;DHT22;3733;47.994;8.820;2022-12-08T07:18:54;-1.40;99.90
7384;DHT22;3733;47.994;8.820;2022-12-08T07:21:20;-1.40;99.90
7384;DHT22;3733;47.994;8.820;2022-12-08T07:23:47;-1.40;99.90
7384;DHT22;3733;47.994;8.820;2022-12-08T07:26:13;-1.40;99.90
7384;DHT22;3733;47.994;8.820;2022-12-08T07:28:40;-1.40;99.90
7384;DHT22;3733;47.994;8.820;2022-12-08T07:31:08;-1.40;99.90
7384;DHT22;3733;47.994;8.820;2022-12-08T07:33:40;-1.40;99.90
7384;DHT22;3733;47.994;8.820;2022-12-08T07:36:06;-1.40;99.90
7384;DHT22;3733;47.994;8.820;2022-12-08T07:38:32;-1.40;99.90
7384;DHT22;3733;47.994;8.820;2022-12-08T07:40:58;-1.40;99.90
7384;DHT22;3733;47.994;8.820;2022-12-08T07:43:24;-1.50;99.90
7384;DHT22;3733;47.994;8.820;2022-12-08T07:45:50;-1.40;99.90
7384;DHT22;3733;47.994;8.820;2022-12-08T07:48:16;-1.40;99.90
7384;DHT22;3733;47.994;8.820;2022-12-08T07:50:42;-1.50;99.90
7384;DHT22;3733;47.994;8.820;2022-12-08T07:53:07;-1.40;99.90
7384;DHT22;3733;47.994;8.820;2022-12-08T07:55:33;-1.40;99.90
7384;DHT22;3733;47.994;8.820;2022-12-08T07:57:59;-1.40;99.90
7384;DHT22;3733;47.994;8.820;2022-12-08T08:00:25;-1.40;99.90
7384;DHT22;3733;47.994;8.820;2022-12-08T08:02:50;-1.30;99.90
7384;DHT22;3733;47.994;8.820;2022-12-08T08:05:16;-1.20;99.90
7384;DHT22;3733;47.994;8.820;2022-12-08T08:07:42;-1.20;99.90
7384;DHT22;3733;47.994;8.820;2022-12-08T08:10:09;-1.20;99.90
7384;DHT22;3733;47.994;8.820;2022-12-08T08:12:36;-1.20;99.90
7384;DHT22;3733;47.994;8.820;2022-12-08T08:15:04;-1.10;99.90
7384;DHT22;3733;47.994;8.820;2022-12-08T08:17:32;-1.10;99.90
7384;DHT22;3733;47.994;8.820;2022-12-08T08:19:58;-1.10;99.90
7384;DHT22;3733;47.994;8.820;2022-12-08T08:22:25;-1.00;99.90
7384;DHT22;3733;47.994;8.820;2022-12-08T08:24:51;-1.00;99.90
7384;DHT22;3733;47.994;8.820;2022-12-08T08:27:17;-1.00;99.90
7384;DHT22;3733;47.994;8.820;2022-12-08T08:29:42;-1.10;99.90
7384;DHT22;3733;47.994;8.820;2022-12-08T08:32:08;-1.00;99.90
7384;DHT22;3733;47.994;8.820;2022-12-08T08:34:34;-1.00;99.90
7384;DHT22;3733;47.994;8.820;2022-12-08T08:36:59;-0.90;99.90
7384;DHT22;3733;47.994;8.820;2022-12-08T08:39:25;-0.90;99.90
7384;DHT22;3733;47.994;8.820;2022-12-08T08:41:51;-0.90;99.90
7384;DHT22;3733;47.994;8.820;2022-12-08T08:44:16;-0.80;99.90
7384;DHT22;3733;47.994;8.820;2022-12-08T08:46:42;-0.80;99.90
7384;DHT22;3733;47.994;8.820;2022-12-08T08:49:08;-0.70;99.90
7384;DHT22;3733;47.994;8.820;2022-12-08T08:51:33;-0.60;99.90
7384;DHT22;3733;47.994;8.820;2022-12-08T08:53:59;-0.60;99.90
7384;DHT22;3733;47.994;8.820;2022-12-08T08:56:24;-0.60;99.90
7384;DHT22;3733;47.994;8.820;2022-12-08T08:58:52;-0.60;99.90
7384;DHT22;3733;47.994;8.820;2022-12-08T09:01:25;-0.50;99.90
7384;DHT22;3733;47.994;8.820;2022-12-08T09:03:52;-0.50;99.90
7384;DHT22;3733;47.994;8.820;2022-12-08T09:06:18;-0.50;99.90
7384;DHT22;3733;47.994;8.820;2022-12-08T09:08:44;-0.50;99.90
7384;DHT22;3733;47.994;8.820;2022-12-08T09:11:10;-0.40;99.90
7384;DHT22;3733;47.994;8.820;2022-12-08T09:13:36;-0.40;99.90
7384;DHT22;3733;47.994;8.820;2022-12-08T09:16:04;-0.40;99.90
7384;DHT22;3733;47.994;8.820;2022-12-08T09:18:30;-0.30;99.90
7384;DHT22;3733;47.994;8.820;2022-12-08T09:20:56;-0.30;99.90
7384;DHT22;3733;47.994;8.820;2022-12-08T09:23:27;-0.20;99.90
7384;DHT22;3733;47.994;8.820;2022-12-08T09:25:53;-0.20;99.90
7384;DHT22;3733;47.994;8.820;2022-12-08T09:28:18;-0.20;99.90
7384;DHT22;3733;47.994;8.820;2022-12-08T09:30:44;-0.10;99.90
7384;DHT22;3733;47.994;8.820;2022-12-08T09:33:09;-0.10;99.90
7384;DHT22;3733;47.994;8.820;2022-12-08T09:35:35;-0.10;99.90
7384;DHT22;3733;47.994;8.820;2022-12-08T09:38:01;0.00;99.90
7384;DHT22;3733;47.994;8.820;2022-12-08T09:40:27;0.00;99.90
7384;DHT22;3733;47.994;8.820;2022-12-08T09:43:32;0.00;99.90
7384;DHT22;3733;47.994;8.820;2022-12-08T09:46:10;0.00;99.90
7384;DHT22;3733;47.994;8.820;2022-12-08T09:48:44;0.10;99.90
7384;DHT22;3733;47.994;8.820;2022-12-08T09:51:13;0.10;99.90
7384;DHT22;3733;47.994;8.820;2022-12-08T09:56:27;0.20;99.90
7384;DHT22;3733;47.994;8.820;2022-12-08T10:01:36;0.30;99.90
7384;DHT22;3733;47.994;8.820;2022-12-08T10:07:19;0.50;99.90
7384;DHT22;3733;47.994;8.820;2022-12-08T10:17:49;0.60;99.90
7384;DHT22;3733;47.994;8.820;2022-12-08T10:20:19;0.60;99.90
7384;DHT22;3733;47.994;8.820;2022-12-08T10:22:47;0.60;99.90
7384;DHT22;3733;47.994;8.820;2022-12-08T10:25:19;0.70;99.90
7384;DHT22;3733;47.994;8.820;2022-12-08T10:27:48;0.70;99.90
7384;DHT22;3733;47.994;8.820;2022-12-08T10:30:17;0.80;99.90
7384;DHT22;3733;47.994;8.820;2022-12-08T10:32:45;0.80;99.90
7384;DHT22;3733;47.994;8.820;2022-12-08T10:35:15;0.80;99.90
7384;DHT22;3733;47.994;8.820;2022-12-08T10:37:56;0.90;99.90
7384;DHT22;3733;47.994;8.820;2022-12-08T10:40:22;0.80;99.90
7384;DHT22;3733;47.994;8.820;2022-12-08T10:42:54;0.90;99.90
7384;DHT22;3733;47.994;8.820;2022-12-08T10:45:24;0.90;99.90
7384;DHT22;3733;47.994;8.820;2022-12-08T10:48:00;0.90;99.90
7384;DHT22;3733;47.994;8.820;2022-12-08T10:53:12;1.00;99.90
7384;DHT22;3733;47.994;8.820;2022-12-08T10:58:37;1.10;99.90
7384;DHT22;3733;47.994;8.820;2022-12-08T11:01:19;1.20;99.90
7384;DHT22;3733;47.994;8.820;2022-12-08T11:08:57;1.30;99.90
7384;DHT22;3733;47.994;8.820;2022-12-08T11:14:18;1.30;99.90
7384;DHT22;3733;47.994;8.820;2022-12-08T11:16:47;1.30;99.90
7384;DHT22;3733;47.994;8.820;2022-12-08T11:19:16;1.40;99.90
7384;DHT22;3733;47.994;8.820;2022-12-08T11:21:43;1.40;99.90
7384;DHT22;3733;47.994;8.820;2022-12-08T11:24:17;1.40;99.90
7384;DHT22;3733;47.994;8.820;2022-12-08T11:27:00;1.50;99.90
7384;DHT22;3733;47.994;8.820;2022-12-08T11:29:32;1.50;99.90
7384;DHT22;3733;47.994;8.820;2022-12-08T11:32:09;1.50;99.90
7384;DHT22;3733;47.994;8.820;2022-12-08T11:34:41;1.60;99.90
7384;DHT22;3733;47.994;8.820;2022-12-08T11:37:22;1.60;99.90
7384;DHT22;3733;47.994;8.820;2022-12-08T11:39:52;1.60;99.90
7384;DHT22;3733;47.994;8.820;2022-12-08T11:42:22;1.70;99.90
7384;DHT22;3733;47.994;8.820;2022-12-08T11:45:06;1.70;99.90
7384;DHT22;3733;47.994;8.820;2022-12-08T11:48:16;1.80;99.90
7384;DHT22;3733;47.994;8.820;2022-12-08T11:54:08;1.80;99.90
7384;DHT22;3733;47.994;8.820;2022-12-08T11:56:41;1.90;99.90
7384;DHT22;3733;47.994;8.820;2022-12-08T11:59:27;1.90;99.90
7384;DHT22;3733;47.994;8.820;2022-12-08T12:01:53;1.90;99.90
7384;DHT22;3733;47.994;8.820;2022-12-08T12:04:37;1.90;99.90
7384;DHT22;3733;47.994;8.820;2022-12-08T12:07:18;1.90;99.90
7384;DHT22;3733;47.994;8.820;2022-12-08T12:12:34;1.80;99.90
7384;DHT22;3733;47.994;8.820;2022-12-08T12:26:01;1.80;99.90
7384;DHT22;3733;47.994;8.820;2022-12-08T12:28:33;1.80;99.90
7384;DHT22;3733;47.994;8.820;2022-12-08T12:31:05;1.80;99.90
7384;DHT22;3733;47.994;8.820;2022-12-08T12:33:33;1.80;99.90
7384;DHT22;3733;47.994;8.820;2022-12-08T12:36:02;1.90;99.90
7384;DHT22;3733;47.994;8.820;2022-12-08T12:39:01;1.80;99.50
7384;DHT22;3733;47.994;8.820;2022-12-08T12:46:59;1.80;96.00
7384;DHT22;3733;47.994;8.820;2022-12-08T12:57:24;1.90;98.90
7384;DHT22;3733;47.994;8.820;2022-12-08T13:07:28;2.00;96.90
7384;DHT22;3733;47.994;8.820;2022-12-08T13:09:59;2.00;96.40
7384;DHT22;3733;47.994;8.820;2022-12-08T13:12:26;2.00;95.60
7384;DHT22;3733;47.994;8.820;2022-12-08T13:14:58;2.00;95.30
7384;DHT22;3733;47.994;8.820;2022-12-08T13:17:30;2.00;95.00
7384;DHT22;3733;47.994;8.820;2022-12-08T13:19:59;1.90;94.80
7384;DHT22;3733;47.994;8.820;2022-12-08T13:22:49;1.90;95.20
7384;DHT22;3733;47.994;8.820;2022-12-08T13:30:45;1.90;94.10
7384;DHT22;3733;47.994;8.820;2022-12-08T13:33:31;2.00;94.10
7384;DHT22;3733;47.994;8.820;2022-12-08T13:36:17;2.00;94.70
7384;DHT22;3733;47.994;8.820;2022-12-08T13:38:46;2.00;94.60
7384;DHT22;3733;47.994;8.820;2022-12-08T13:41:18;2.00;94.10
7384;DHT22;3733;47.994;8.820;2022-12-08T13:43:54;2.00;91.90
7384;DHT22;3733;47.994;8.820;2022-12-08T13:46:33;2.00;92.50
7384;DHT22;3733;47.994;8.820;2022-12-08T13:48:59;2.00;92.30
7384;DHT22;3733;47.994;8.820;2022-12-08T13:51:31;2.00;90.70
7384;DHT22;3733;47.994;8.820;2022-12-08T13:54:17;2.10;90.50
7384;DHT22;3733;47.994;8.820;2022-12-08T13:56:44;2.10;87.10
7384;DHT22;3733;47.994;8.820;2022-12-08T13:59:31;2.10;85.90
7384;DHT22;3733;47.994;8.820;2022-12-08T14:04:43;2.10;83.20
7384;DHT22;3733;47.994;8.820;2022-12-08T14:07:10;2.00;83.30
7384;DHT22;3733;47.994;8.820;2022-12-08T14:09:36;2.00;83.70
7384;DHT22;3733;47.994;8.820;2022-12-08T14:14:41;1.90;81.90
7384;DHT22;3733;47.994;8.820;2022-12-08T14:17:17;1.90;81.70
7384;DHT22;3733;47.994;8.820;2022-12-08T14:19:52;1.90;83.00
7384;DHT22;3733;47.994;8.820;2022-12-08T14:22:19;1.90;80.30
7384;DHT22;3733;47.994;8.820;2022-12-08T14:24:46;1.80;80.10
7384;DHT22;3733;47.994;8.820;2022-12-08T14:27:23;1.80;80.90
7384;DHT22;3733;47.994;8.820;2022-12-08T14:29:55;1.70;83.40
7384;DHT22;3733;47.994;8.820;2022-12-08T14:32:32;1.70;84.20
7384;DHT22;3733;47.994;8.820;2022-12-08T14:35:10;1.70;86.70
7384;DHT22;3733;47.994;8.820;2022-12-08T14:37:40;1.60;89.60
7384;DHT22;3733;47.994;8.820;2022-12-08T14:45:16;1.60;91.80
7384;DHT22;3733;47.994;8.820;2022-12-08T14:47:43;1.60;90.50
7384;DHT22;3733;47.994;8.820;2022-12-08T14:50:38;1.60;91.30
7384;DHT22;3733;47.994;8.820;2022-12-08T14:53:11;1.60;91.70
7384;DHT22;3733;47.994;8.820;2022-12-08T14:55:38;1.60;93.10
7384;DHT22;3733;47.994;8.820;2022-12-08T14:58:03;1.60;94.10
7384;DHT22;3733;47.994;8.820;2022-12-08T15:00:29;1.60;93.90
7384;DHT22;3733;47.994;8.820;2022-12-08T15:02:56;1.60;94.00
7384;DHT22;3733;47.994;8.820;2022-12-08T15:05:27;1.60;94.10
7384;DHT22;3733;47.994;8.820;2022-12-08T15:07:58;1.60;92.90
7384;DHT22;3733;47.994;8.820;2022-12-08T15:10:26;1.50;93.00
7384;DHT22;3733;47.994;8.820;2022-12-08T15:23:04;1.40;91.90
7384;DHT22;3733;47.994;8.820;2022-12-08T15:25:29;1.40;92.30
7384;DHT22;3733;47.994;8.820;2022-12-08T15:27:56;1.40;91.90
7384;DHT22;3733;47.994;8.820;2022-12-08T15:30:23;1.40;91.40
7384;DHT22;3733;47.994;8.820;2022-12-08T15:32:51;1.30;91.20
7384;DHT22;3733;47.994;8.820;2022-12-08T15:35:17;1.30;91.60
7384;DHT22;3733;47.994;8.820;2022-12-08T15:37:43;1.20;91.80
7384;DHT22;3733;47.994;8.820;2022-12-08T15:40:19;1.20;92.30
7384;DHT22;3733;47.994;8.820;2022-12-08T15:42:45;1.10;92.50
7384;DHT22;3733;47.994;8.820;2022-12-08T15:45:12;1.10;93.60
7384;DHT22;3733;47.994;8.820;2022-12-08T15:47:38;1.10;95.10
7384;DHT22;3733;47.994;8.820;2022-12-08T15:50:05;1.00;95.90
7384;DHT22;3733;47.994;8.820;2022-12-08T15:52:31;1.00;96.80
7384;DHT22;3733;47.994;8.820;2022-12-08T15:54:57;0.90;97.30
7384;DHT22;3733;47.994;8.820;2022-12-08T15:57:24;0.90;98.00
7384;DHT22;3733;47.994;8.820;2022-12-08T15:59:52;0.80;98.60
7384;DHT22;3733;47.994;8.820;2022-12-08T16:02:18;0.80;98.90
7384;DHT22;3733;47.994;8.820;2022-12-08T16:04:44;0.70;99.00
7384;DHT22;3733;47.994;8.820;2022-12-08T16:07:22;0.70;99.30
7384;DHT22;3733;47.994;8.820;2022-12-08T16:09:49;0.70;99.70
7384;DHT22;3733;47.994;8.820;2022-12-08T16:12:26;0.60;99.90
7384;DHT22;3733;47.994;8.820;2022-12-08T16:15:11;0.60;99.90
7384;DHT22;3733;47.994;8.820;2022-12-08T16:17:38;0.60;99.50
7384;DHT22;3733;47.994;8.820;2022-12-08T16:20:12;0.60;99.50
7384;DHT22;3733;47.994;8.820;2022-12-08T16:22:38;0.60;99.60
7384;DHT22;3733;47.994;8.820;2022-12-08T16:25:04;0.60;99.40
7384;DHT22;3733;47.994;8.820;2022-12-08T16:27:32;0.60;99.50
7384;DHT22;3733;47.994;8.820;2022-12-08T16:30:00;0.50;99.90
7384;DHT22;3733;47.994;8.820;2022-12-08T16:32:26;0.50;99.90
7384;DHT22;3733;47.994;8.820;2022-12-08T16:34:53;0.50;99.90
7384;DHT22;3733;47.994;8.820;2022-12-08T16:37:21;0.40;99.90
7384;DHT22;3733;47.994;8.820;2022-12-08T16:39:48;0.40;99.90
7384;DHT22;3733;47.994;8.820;2022-12-08T16:42:23;0.40;99.90
7384;DHT22;3733;47.994;8.820;2022-12-08T16:45:12;0.30;99.90
7384;DHT22;3733;47.994;8.820;2022-12-08T16:47:40;0.20;99.90
7384;DHT22;3733;47.994;8.820;2022-12-08T16:50:10;0.30;99.90
7384;DHT22;3733;47.994;8.820;2022-12-08T16:52:37;0.20;99.90
7384;DHT22;3733;47.994;8.820;2022-12-08T16:55:09;0.20;99.90
7384;DHT22;3733;47.994;8.820;2022-12-08T16:57:35;0.10;99.90
7384;DHT22;3733;47.994;8.820;2022-12-08T17:00:02;0.10;99.90
7384;DHT22;3733;47.994;8.820;2022-12-08T17:02:28;0.10;99.90
7384;DHT22;3733;47.994;8.820;2022-12-08T17:04:54;0.00;99.90
7384;DHT22;3733;47.994;8.820;2022-12-08T17:07:20;0.00;99.90
7384;DHT22;3733;47.994;8.820;2022-12-08T17:09:45;0.00;99.90
7384;DHT22;3733;47.994;8.820;2022-12-08T17:12:11;-0.10;99.90
7384;DHT22;3733;47.994;8.820;2022-12-08T17:14:36;-0.10;99.90
7384;DHT22;3733;47.994;8.820;2022-12-08T17:17:02;-0.20;99.90
7384;DHT22;3733;47.994;8.820;2022-12-08T17:19:28;-0.20;99.90
7384;DHT22;3733;47.994;8.820;2022-12-08T17:21:54;-0.20;99.90
7384;DHT22;3733;47.994;8.820;2022-12-08T17:24:19;-0.20;99.90
7384;DHT22;3733;47.994;8.820;2022-12-08T17:26:47;-0.20;99.90
7384;DHT22;3733;47.994;8.820;2022-12-08T17:29:13;-0.30;99.90
7384;DHT22;3733;47.994;8.820;2022-12-08T17:31:39;-0.30;99.90
7384;DHT22;3733;47.994;8.820;2022-12-08T17:34:05;-0.30;99.90
7384;DHT22;3733;47.994;8.820;2022-12-08T17:36:35;-0.30;99.90
7384;DHT22;3733;47.994;8.820;2022-12-08T17:39:01;-0.40;99.90
7384;DHT22;3733;47.994;8.820;2022-12-08T17:41:27;-0.40;99.90
7384;DHT22;3733;47.994;8.820;2022-12-08T17:43:53;-0.40;99.90
7384;DHT22;3733;47.994;8.820;2022-12-08T17:46:20;-0.40;99.90
7384;DHT22;3733;47.994;8.820;2022-12-08T17:48:46;-0.50;99.90
7384;DHT22;3733;47.994;8.820;2022-12-08T17:51:11;-0.50;99.90
7384;DHT22;3733;47.994;8.820;2022-12-08T17:53:38;-0.50;99.90
7384;DHT22;3733;47.994;8.820;2022-12-08T17:56:06;-0.60;99.90
7384;DHT22;3733;47.994;8.820;2022-12-08T17:58:37;-0.60;99.90
7384;DHT22;3733;47.994;8.820;2022-12-08T18:01:07;-0.60;99.90
7384;DHT22;3733;47.994;8.820;2022-12-08T18:03:33;-0.70;99.90
7384;DHT22;3733;47.994;8.820;2022-12-08T18:06:04;-0.80;99.90
7384;DHT22;3733;47.994;8.820;2022-12-08T18:08:29;-0.80;99.90
7384;DHT22;3733;47.994;8.820;2022-12-08T18:10:55;-0.90;99.90
7384;DHT22;3733;47.994;8.820;2022-12-08T18:13:20;-0.90;99.90
7384;DHT22;3733;47.994;8.820;2022-12-08T18:15:46;-0.90;99.90
7384;DHT22;3733;47.994;8.820;2022-12-08T18:18:12;-1.00;99.90
7384;DHT22;3733;47.994;8.820;2022-12-08T18:20:37;-1.00;99.90
7384;DHT22;3733;47.994;8.820;2022-12-08T18:23:03;-1.00;99.90
7384;DHT22;3733;47.994;8.820;2022-12-08T18:25:29;-1.00;99.90